createdAt,value
2017-09-08T00:01:26.151Z,3.43
2017-09-08T00:03:54.399Z,3.50
2017-09-08T00:06:22.641Z,3.50
2017-09-08T00:08:50.132Z,3.80
2017-09-08T00:11:17.603Z,3.60
2017-09-08T00:13:45.860Z,3.70
2017-09-08T00:16:13.322Z,3.13
2017-09-08T00:18:40.827Z,2.90
2017-09-08T00:21:08.295Z,3.10
2017-09-08T00:23:35.797Z,3.60
2017-09-08T00:26:03.304Z,3.30
2017-09-08T00:28:30.788Z,3.27
2017-09-08T00:30:58.275Z,3.20
2017-09-08T00:33:25.752Z,3.53
2017-09-08T00:35:54.022Z,4.30
2017-09-08T00:38:22.278Z,2.80
2017-09-08T00:40:49.792Z,4.22
2017-09-08T00:43:17.264Z,4.00
2017-09-08T00:45:44.747Z,3.47
2017-09-08T00:48:12.270Z,3.33
2017-09-08T00:50:39.722Z,3.13
2017-09-08T00:53:07.191Z,2.97
2017-09-08T00:55:34.695Z,3.40
2017-09-08T00:58:02.179Z,2.92
2017-09-08T01:00:30.458Z,3.08
2017-09-08T01:02:57.944Z,3.17
2017-09-08T01:05:25.441Z,3.40
2017-09-08T01:07:52.949Z,2.83
2017-09-08T01:10:20.417Z,3.45
2017-09-08T01:12:47.927Z,3.37
2017-09-08T01:15:15.407Z,3.33
2017-09-08T01:17:43.647Z,3.35
2017-09-08T01:20:11.140Z,3.55
2017-09-08T01:22:39.378Z,3.47
2017-09-08T01:25:06.909Z,3.17
2017-09-08T01:27:34.434Z,3.40
2017-09-08T01:30:02.678Z,3.40
2017-09-08T01:32:30.159Z,3.60
2017-09-08T01:34:58.407Z,3.30
2017-09-08T01:37:25.904Z,3.42
2017-09-08T01:39:54.132Z,3.40
2017-09-08T01:42:21.614Z,3.20
2017-09-08T01:44:49.131Z,2.67
2017-09-08T01:47:16.607Z,3.92
2017-09-08T01:49:44.083Z,3.85
2017-09-08T01:52:11.567Z,3.80
2017-09-08T01:54:39.800Z,4.10
2017-09-08T01:57:07.295Z,3.10
2017-09-08T01:59:35.549Z,3.85
2017-09-08T02:02:03.058Z,3.20
2017-09-08T02:04:30.550Z,3.37
2017-09-08T02:06:58.029Z,4.20
2017-09-08T02:09:25.530Z,2.85
2017-09-08T02:11:53.761Z,3.75
2017-09-08T02:14:21.277Z,3.42
2017-09-08T02:16:48.750Z,3.62
2017-09-08T02:19:16.212Z,4.05
2017-09-08T02:21:49.603Z,3.55
2017-09-08T02:24:17.074Z,3.30
2017-09-08T02:26:44.574Z,3.70
2017-09-08T02:29:12.824Z,3.33
2017-09-08T02:31:40.310Z,3.40
2017-09-08T02:34:08.568Z,3.30
2017-09-08T02:36:36.031Z,3.85
2017-09-08T02:39:03.525Z,4.15
2017-09-08T02:41:31.000Z,3.55
2017-09-08T02:43:58.491Z,3.47
2017-09-08T02:46:25.992Z,3.00
2017-09-08T02:48:54.228Z,3.20
2017-09-08T02:51:21.719Z,3.70
2017-09-08T02:53:49.963Z,4.03
2017-09-08T02:56:17.472Z,3.50
2017-09-08T02:58:44.940Z,4.07
2017-09-08T03:01:12.403Z,3.25
2017-09-08T03:03:39.904Z,3.20
2017-09-08T03:06:08.130Z,4.10
2017-09-08T03:08:35.608Z,3.50
2017-09-08T03:11:03.095Z,3.00
2017-09-08T03:13:30.556Z,3.00
2017-09-08T03:15:58.048Z,3.00
2017-09-08T03:18:26.318Z,2.67
2017-09-08T03:20:54.638Z,3.62
2017-09-08T03:23:22.125Z,3.62
2017-09-08T03:25:49.600Z,3.20
2017-09-08T03:28:17.082Z,3.58
2017-09-08T03:30:44.564Z,3.70
2017-09-08T03:33:12.045Z,3.35
2017-09-08T03:35:39.546Z,3.35
2017-09-08T03:38:07.774Z,2.85
2017-09-08T03:40:35.242Z,3.62
2017-09-08T03:43:02.737Z,3.08
2017-09-08T03:45:30.979Z,2.80
2017-09-08T03:47:58.472Z,2.30
2017-09-08T03:50:26.709Z,3.60
2017-09-08T03:52:54.180Z,4.05
2017-09-08T03:55:21.683Z,3.37
2017-09-08T03:57:49.164Z,3.05
2017-09-08T04:00:16.646Z,2.92
2017-09-08T04:02:44.107Z,3.00
2017-09-08T04:05:11.618Z,3.50
2017-09-08T04:07:39.845Z,3.87
2017-09-08T04:10:07.299Z,3.15
2017-09-08T04:12:34.790Z,3.25
2017-09-08T04:15:03.026Z,3.08
2017-09-08T04:17:30.523Z,3.35
2017-09-08T04:19:58.752Z,2.53
2017-09-08T04:22:26.231Z,3.75
2017-09-08T04:24:53.738Z,3.60
2017-09-08T04:27:21.956Z,3.83
2017-09-08T04:29:49.439Z,2.80
2017-09-08T04:32:16.915Z,3.50
2017-09-08T04:34:45.148Z,2.70
2017-09-08T04:37:12.638Z,3.40
2017-09-08T04:39:40.875Z,3.33
2017-09-08T04:42:08.356Z,3.40
2017-09-08T04:44:35.852Z,2.92
2017-09-08T04:47:04.105Z,3.50
2017-09-08T04:49:32.375Z,3.33
2017-09-08T04:51:59.860Z,2.97
2017-09-08T04:54:28.100Z,3.28
2017-09-08T04:56:55.571Z,3.10
2017-09-08T04:59:23.090Z,3.47
2017-09-08T05:01:50.551Z,3.65
2017-09-08T05:04:18.015Z,4.72
2017-09-08T05:06:45.508Z,3.05
2017-09-08T05:09:12.963Z,2.78
2017-09-08T05:11:40.463Z,3.67
2017-09-08T05:14:07.923Z,2.92
2017-09-08T05:16:35.421Z,3.53
2017-09-08T05:19:02.899Z,3.40
2017-09-08T05:21:30.383Z,2.90
2017-09-08T05:23:58.648Z,2.97
2017-09-08T05:26:26.886Z,3.58
2017-09-08T05:28:54.375Z,5.05
2017-09-08T05:31:22.638Z,3.80
2017-09-08T05:33:50.115Z,3.53
2017-09-08T05:36:18.375Z,3.33
2017-09-08T05:38:45.829Z,3.72
2017-09-08T05:41:13.342Z,3.37
2017-09-08T05:43:40.850Z,3.55
2017-09-08T05:46:08.322Z,3.35
2017-09-08T05:48:36.575Z,3.90
2017-09-08T05:51:04.061Z,3.70
2017-09-08T05:53:31.562Z,3.30
2017-09-08T05:55:59.050Z,4.10
2017-09-08T05:58:26.491Z,3.78
2017-09-08T06:00:53.993Z,3.15
2017-09-08T06:03:22.214Z,3.67
2017-09-08T06:05:49.747Z,3.80
2017-09-08T06:08:17.224Z,4.07
2017-09-08T06:10:44.700Z,3.45
2017-09-08T06:13:12.222Z,3.83
2017-09-08T06:15:39.708Z,3.87
2017-09-08T06:18:07.207Z,3.73
2017-09-08T06:20:34.689Z,3.83
2017-09-08T06:23:02.971Z,3.80
2017-09-08T06:25:30.500Z,3.70
2017-09-08T06:27:57.971Z,4.43
2017-09-08T06:30:26.415Z,4.03
2017-09-08T06:32:55.310Z,4.33
2017-09-08T06:35:22.857Z,4.87
2017-09-08T06:37:50.355Z,4.03
2017-09-08T06:40:17.836Z,3.60
2017-09-08T06:42:46.112Z,4.20
2017-09-08T06:45:14.351Z,5.57
2017-09-08T06:47:42.203Z,4.20
2017-09-08T06:50:09.689Z,4.10
2017-09-08T06:52:37.192Z,3.70
2017-09-08T06:55:04.707Z,4.63
2017-09-08T06:57:32.800Z,4.40
2017-09-08T07:00:01.085Z,5.30
2017-09-08T07:02:29.330Z,4.50
2017-09-08T07:04:56.849Z,5.80
2017-09-08T07:07:24.348Z,4.77
2017-09-08T07:09:51.812Z,4.70
2017-09-08T07:12:19.320Z,4.67
2017-09-08T07:14:46.818Z,4.93
2017-09-08T07:17:14.321Z,4.23
2017-09-08T07:19:41.816Z,4.70
2017-09-08T07:22:09.315Z,4.90
2017-09-08T07:24:37.601Z,4.47
2017-09-08T07:27:05.830Z,5.97
2017-09-08T07:29:33.328Z,5.30
2017-09-08T07:32:00.814Z,5.60
2017-09-08T07:34:28.314Z,5.70
2017-09-08T07:36:55.835Z,5.67
2017-09-08T07:39:23.323Z,5.27
2017-09-08T07:41:50.818Z,6.00
2017-09-08T07:44:19.050Z,5.40
2017-09-08T07:46:46.549Z,5.10
2017-09-08T07:49:14.047Z,5.80
2017-09-08T07:51:41.526Z,5.07
2017-09-08T07:54:09.032Z,6.00
2017-09-08T07:56:37.263Z,6.30
2017-09-08T07:59:04.767Z,5.53
2017-09-08T08:01:33.017Z,5.40
2017-09-08T08:04:00.485Z,5.87
2017-09-08T08:06:27.998Z,6.40
2017-09-08T08:08:55.500Z,5.17
2017-09-08T08:11:23.004Z,5.70
2017-09-08T08:13:50.463Z,5.77
2017-09-08T08:16:17.932Z,4.80
2017-09-08T08:18:45.450Z,5.83
2017-09-08T08:21:12.932Z,5.90
2017-09-08T08:23:41.188Z,4.47
2017-09-08T08:26:08.660Z,3.97
2017-09-08T08:28:36.950Z,4.40
2017-09-08T08:31:05.210Z,4.83
2017-09-08T08:33:32.690Z,4.20
2017-09-08T08:36:00.195Z,4.67
2017-09-08T08:38:27.674Z,3.43
2017-09-08T08:40:55.188Z,3.50
2017-09-08T08:43:22.681Z,4.40
2017-09-08T08:45:50.159Z,3.67
2017-09-08T08:48:17.689Z,4.30
2017-09-08T08:50:45.161Z,4.50
2017-09-08T08:53:12.662Z,4.27
2017-09-08T08:55:40.906Z,4.57
2017-09-08T08:58:08.410Z,4.70
2017-09-08T09:00:35.877Z,4.60
2017-09-08T09:03:03.376Z,4.40
2017-09-08T09:05:30.847Z,4.60
2017-09-08T09:07:59.124Z,5.50
2017-09-08T09:10:26.600Z,4.70
2017-09-08T09:12:54.859Z,5.77
2017-09-08T09:15:22.323Z,6.00
2017-09-08T09:17:50.604Z,5.60
2017-09-08T09:20:18.840Z,5.57
2017-09-08T09:22:46.338Z,5.43
2017-09-08T09:25:14.589Z,6.60
2017-09-08T09:27:42.123Z,5.73
2017-09-08T09:30:09.590Z,5.70
2017-09-08T09:32:37.055Z,5.43
2017-09-08T09:35:04.590Z,5.50
2017-09-08T09:37:32.043Z,5.93
2017-09-08T09:39:59.515Z,7.10
2017-09-08T09:42:27.043Z,6.93
2017-09-08T09:44:54.519Z,6.13
2017-09-08T09:47:22.023Z,8.07
2017-09-08T09:49:49.507Z,6.40
2017-09-08T09:52:17.726Z,7.07
2017-09-08T09:54:45.219Z,7.00
2017-09-08T09:57:12.722Z,6.50
2017-09-08T09:59:40.205Z,7.00
2017-09-08T10:02:07.691Z,6.73
2017-09-08T10:04:35.184Z,7.60
2017-09-08T10:07:02.768Z,8.27
2017-09-08T10:09:30.240Z,7.67
2017-09-08T10:11:57.757Z,7.07
2017-09-08T10:14:25.224Z,6.63
2017-09-08T10:16:52.695Z,6.67
2017-09-08T10:19:20.174Z,6.23
2017-09-08T10:21:47.642Z,6.57
2017-09-08T10:24:15.143Z,7.00
2017-09-08T10:26:43.387Z,7.63
2017-09-08T10:29:10.889Z,6.63
2017-09-08T10:31:38.378Z,6.90
2017-09-08T10:34:05.830Z,7.30
2017-09-08T10:36:33.331Z,8.20
2017-09-08T10:39:00.791Z,6.43
2017-09-08T10:41:29.074Z,5.80
2017-09-08T10:43:57.314Z,7.40
2017-09-08T10:46:24.802Z,7.00
2017-09-08T10:48:52.296Z,7.83
2017-09-08T10:51:19.800Z,6.50
2017-09-08T10:53:47.321Z,6.87
2017-09-08T10:56:14.788Z,7.67
2017-09-08T10:58:42.247Z,7.50
2017-09-08T11:01:09.770Z,6.73
2017-09-08T11:03:37.998Z,8.20
2017-09-08T11:06:05.501Z,7.10
2017-09-08T11:08:33.727Z,7.00
2017-09-08T11:11:01.198Z,7.27
2017-09-08T11:13:28.729Z,6.87
2017-09-08T11:15:56.219Z,7.47
2017-09-08T11:18:24.503Z,7.60
2017-09-08T11:20:51.971Z,7.53
2017-09-08T11:23:19.472Z,7.03
2017-09-08T11:25:46.971Z,8.10
2017-09-08T11:28:14.446Z,8.03
2017-09-08T11:30:41.915Z,8.23
2017-09-08T11:33:15.824Z,8.20
2017-09-08T11:35:49.748Z,7.13
2017-09-08T11:38:18.023Z,7.50
2017-09-08T11:40:46.275Z,7.07
2017-09-08T11:43:13.811Z,8.07
2017-09-08T11:45:41.321Z,7.70
2017-09-08T11:48:09.565Z,7.43
2017-09-08T11:50:37.059Z,7.07
2017-09-08T11:53:05.328Z,8.80
2017-09-08T11:55:33.559Z,6.63
2017-09-08T11:58:01.069Z,7.27
2017-09-08T12:00:29.306Z,7.20
2017-09-08T12:02:56.787Z,8.20
2017-09-08T12:05:25.055Z,8.77
2017-09-08T12:07:52.531Z,7.70
2017-09-08T12:10:20.807Z,7.17
2017-09-08T12:12:48.319Z,7.07
2017-09-08T12:15:15.819Z,7.30
2017-09-08T12:17:43.303Z,7.13
2017-09-08T12:20:10.779Z,6.53
2017-09-08T12:22:38.280Z,7.27
2017-09-08T12:25:05.756Z,7.90
2017-09-08T12:27:33.993Z,7.33
2017-09-08T12:30:01.479Z,7.23
2017-09-08T12:32:28.946Z,6.90
2017-09-08T12:34:57.236Z,7.50
2017-09-08T12:37:25.472Z,7.67
2017-09-08T12:39:52.992Z,7.70
2017-09-08T12:42:20.489Z,7.60
2017-09-08T12:44:48.010Z,8.07
2017-09-08T12:47:15.483Z,8.30
2017-09-08T12:49:42.957Z,8.13
2017-09-08T12:52:10.446Z,7.10
2017-09-08T12:54:38.681Z,7.70
2017-09-08T12:57:06.175Z,8.50
2017-09-08T12:59:33.680Z,7.77
2017-09-08T13:02:01.232Z,8.63
2017-09-08T13:04:29.493Z,9.57
2017-09-08T13:06:57.763Z,9.03
2017-09-08T13:09:26.020Z,8.90
2017-09-08T13:11:53.521Z,9.10
2017-09-08T13:14:21.042Z,8.20
2017-09-08T13:16:48.528Z,9.60
2017-09-08T13:19:16.769Z,9.60
2017-09-08T13:21:44.263Z,9.70
2017-09-08T13:24:12.492Z,7.90
2017-09-08T13:26:39.959Z,8.80
2017-09-08T13:29:07.504Z,8.80
2017-09-08T13:31:35.024Z,8.80
2017-09-08T13:34:02.559Z,9.40
2017-09-08T13:36:30.058Z,9.70
2017-09-08T13:38:57.555Z,9.30
2017-09-08T13:41:25.012Z,9.33
2017-09-08T13:43:52.510Z,8.90
2017-09-08T13:46:20.759Z,9.63
2017-09-08T13:48:48.257Z,9.30
2017-09-08T13:51:15.742Z,9.10
2017-09-08T13:53:43.245Z,8.83
2017-09-08T13:56:11.496Z,10.60
2017-09-08T13:58:39.024Z,9.70
2017-09-08T14:01:06.736Z,9.13
2017-09-08T14:03:34.259Z,8.83
2017-09-08T14:06:01.760Z,8.50
2017-09-08T14:08:30.339Z,8.93
2017-09-08T14:10:57.856Z,9.80
2017-09-08T14:13:25.339Z,8.90
2017-09-08T14:15:52.795Z,8.30
2017-09-08T14:18:20.287Z,8.53
2017-09-08T14:20:48.520Z,8.27
2017-09-08T14:23:16.031Z,10.23
2017-09-08T14:25:44.273Z,9.33
2017-09-08T14:28:11.759Z,9.73
2017-09-08T14:30:40.010Z,9.03
2017-09-08T14:33:07.473Z,8.70
2017-09-08T14:35:35.045Z,8.30
2017-09-08T14:38:02.531Z,9.80
2017-09-08T14:40:30.051Z,8.17
2017-09-08T14:42:57.517Z,9.00
2017-09-08T14:45:25.016Z,8.93
2017-09-08T14:47:54.258Z,9.10
2017-09-08T14:50:21.750Z,9.00
2017-09-08T14:52:49.988Z,9.60
2017-09-08T14:55:17.507Z,7.20
2017-09-08T14:57:44.986Z,9.33
2017-09-08T15:00:12.462Z,9.07
2017-09-08T15:02:39.951Z,9.60
2017-09-08T15:05:08.218Z,9.60
2017-09-08T15:07:35.711Z,8.40
2017-09-08T15:10:03.991Z,10.30
2017-09-08T15:12:31.472Z,10.87
2017-09-08T15:14:58.980Z,9.67
2017-09-08T15:17:26.520Z,8.80
2017-09-08T15:19:54.057Z,9.80
2017-09-08T15:22:21.499Z,9.83
2017-09-08T15:24:48.997Z,9.27
2017-09-08T15:27:16.476Z,10.03
2017-09-08T15:29:44.740Z,9.30
2017-09-08T15:32:12.267Z,9.27
2017-09-08T15:34:39.752Z,8.47
2017-09-08T15:37:07.264Z,9.83
2017-09-08T15:39:34.748Z,9.63
2017-09-08T15:42:02.228Z,10.17
2017-09-08T15:44:29.714Z,9.53
2017-09-08T15:46:57.992Z,9.93
2017-09-08T15:49:26.300Z,10.37
2017-09-08T15:51:53.784Z,11.80
2017-09-08T15:54:21.251Z,10.17
2017-09-08T15:56:48.779Z,10.97
2017-09-08T15:59:16.240Z,10.90
2017-09-08T16:01:43.723Z,10.60
2017-09-08T16:04:11.241Z,10.13
2017-09-08T16:06:38.708Z,10.20
2017-09-08T16:09:06.199Z,10.17
2017-09-08T16:11:34.270Z,11.30
2017-09-08T16:14:01.779Z,11.30
2017-09-08T16:16:30.020Z,10.50
2017-09-08T16:18:57.587Z,11.73
2017-09-08T16:21:25.117Z,11.67
2017-09-08T16:23:53.170Z,11.77
2017-09-08T16:26:20.660Z,11.43
2017-09-08T16:28:48.143Z,10.53
2017-09-08T16:31:15.700Z,10.47
2017-09-08T16:33:43.215Z,10.03
2017-09-08T16:36:10.764Z,10.43
2017-09-08T16:38:38.270Z,10.73
2017-09-08T16:41:05.792Z,10.00
2017-09-08T16:43:33.281Z,11.03
2017-09-08T16:46:00.813Z,10.00
2017-09-08T16:48:28.297Z,9.20
2017-09-08T16:50:55.760Z,9.97
2017-09-08T16:53:23.261Z,9.40
2017-09-08T16:55:50.724Z,10.00
2017-09-08T16:58:18.253Z,9.43
2017-09-08T17:00:46.510Z,10.00
2017-09-08T17:03:13.995Z,9.90
2017-09-08T17:05:42.234Z,10.07
2017-09-08T17:08:09.744Z,11.10
2017-09-08T17:10:37.256Z,9.97
2017-09-08T17:13:04.756Z,8.90
2017-09-08T17:15:33.046Z,10.50
2017-09-08T17:18:00.507Z,10.70
2017-09-08T17:20:28.011Z,10.70
2017-09-08T17:22:55.499Z,10.23
2017-09-08T17:25:23.751Z,11.10
2017-09-08T17:27:51.264Z,9.03
2017-09-08T17:30:18.752Z,9.10
2017-09-08T17:32:46.270Z,10.77
2017-09-08T17:35:13.748Z,13.70
2017-09-08T17:37:41.255Z,13.60
2017-09-08T17:40:08.741Z,14.37
2017-09-08T17:42:36.977Z,13.20
2017-09-08T17:45:04.487Z,9.13
2017-09-08T17:47:31.990Z,10.40
2017-09-08T17:49:59.748Z,9.50
2017-09-08T17:52:27.235Z,9.00
2017-09-08T17:54:55.427Z,9.40
2017-09-08T17:57:23.680Z,14.03
2017-09-08T17:59:51.160Z,11.67
2017-09-08T18:02:19.046Z,10.17
2017-09-08T18:04:47.281Z,11.30
2017-09-08T18:07:14.747Z,8.97
2017-09-08T18:09:42.276Z,9.97
2017-09-08T18:12:09.792Z,12.90
2017-09-08T18:14:37.282Z,11.67
2017-09-08T18:17:04.787Z,15.40
2017-09-08T18:19:32.248Z,9.83
2017-09-08T18:21:59.728Z,12.70
2017-09-08T18:24:28.011Z,10.40
2017-09-08T18:26:55.523Z,10.97
2017-09-08T18:29:22.976Z,9.40
2017-09-08T18:31:50.507Z,10.70
2017-09-08T18:34:18.000Z,11.60
2017-09-08T18:36:45.511Z,10.43
2017-09-08T18:39:13.013Z,10.13
2017-09-08T18:41:40.571Z,10.60
2017-09-08T18:44:08.046Z,10.50
2017-09-08T18:46:35.540Z,11.20
2017-09-08T18:49:03.058Z,10.47
2017-09-08T18:51:30.546Z,8.93
2017-09-08T18:53:58.820Z,8.10
2017-09-08T18:56:27.070Z,9.10
2017-09-08T18:58:54.593Z,9.50
2017-09-08T19:01:22.086Z,8.90
2017-09-08T19:03:49.565Z,8.80
2017-09-08T19:06:18.903Z,12.10
2017-09-08T19:08:46.436Z,10.67
2017-09-08T19:11:14.695Z,11.20
2017-09-08T19:13:42.183Z,11.63
2017-09-08T19:16:09.698Z,12.30
2017-09-08T19:18:37.208Z,12.83
2017-09-08T19:21:04.740Z,11.17
2017-09-08T19:23:32.983Z,12.30
2017-09-08T19:26:00.542Z,12.57
2017-09-08T19:28:28.034Z,10.97
2017-09-08T19:30:56.294Z,10.97
2017-09-08T19:33:23.796Z,11.20
2017-09-08T19:35:51.275Z,10.23
2017-09-08T19:38:18.809Z,10.67
2017-09-08T19:40:46.309Z,10.60
2017-09-08T19:43:13.804Z,8.77
2017-09-08T19:45:41.356Z,8.27
2017-09-08T19:48:08.822Z,9.20
2017-09-08T19:50:37.088Z,8.73
2017-09-08T19:53:04.610Z,8.40
2017-09-08T19:55:32.111Z,9.20
2017-09-08T19:57:59.599Z,9.40
2017-09-08T20:00:27.095Z,8.70
2017-09-08T20:02:54.611Z,8.40
2017-09-08T20:05:22.847Z,8.73
2017-09-08T20:07:50.351Z,8.60
2017-09-08T20:10:18.646Z,8.87
2017-09-08T20:12:46.139Z,10.10
2017-09-08T20:15:13.670Z,8.77
2017-09-08T20:17:41.150Z,9.93
2017-09-08T20:20:08.643Z,10.60
2017-09-08T20:22:36.923Z,11.20
2017-09-08T20:25:04.393Z,10.70
2017-09-08T20:27:31.902Z,11.43
2017-09-08T20:29:59.408Z,11.00
2017-09-08T20:32:27.693Z,9.60
2017-09-08T20:34:55.175Z,9.20
2017-09-08T20:37:22.639Z,8.87
2017-09-08T20:39:50.156Z,8.47
2017-09-08T20:42:18.407Z,8.70
2017-09-08T20:44:45.902Z,8.87
2017-09-08T20:47:13.380Z,10.17
2017-09-08T20:49:40.884Z,10.30
2017-09-08T20:52:08.388Z,7.50
2017-09-08T20:54:35.884Z,8.80
2017-09-08T20:57:03.381Z,9.70
2017-09-08T20:59:30.890Z,8.70
2017-09-08T21:01:58.389Z,7.97
2017-09-08T21:04:26.643Z,9.00
2017-09-08T21:06:54.160Z,8.83
2017-09-08T21:09:21.628Z,9.27
2017-09-08T21:11:49.187Z,10.37
2017-09-08T21:14:16.675Z,10.63
2017-09-08T21:16:44.163Z,9.47
2017-09-08T21:19:12.449Z,9.47
2017-09-08T21:21:40.697Z,8.83
2017-09-08T21:24:08.199Z,9.00
2017-09-08T21:26:35.700Z,8.77
2017-09-08T21:29:03.202Z,9.13
2017-09-08T21:31:31.428Z,9.47
2017-09-08T21:33:58.930Z,9.30
2017-09-08T21:36:26.408Z,9.40
2017-09-08T21:38:53.868Z,9.97
2017-09-08T21:41:21.361Z,9.80
2017-09-08T21:43:48.847Z,10.87
2017-09-08T21:46:16.351Z,9.30
2017-09-08T21:48:43.835Z,10.00
2017-09-08T21:51:11.307Z,9.73
2017-09-08T21:53:38.791Z,9.73
2017-09-08T21:56:07.035Z,10.93
2017-09-08T21:58:34.543Z,8.97
2017-09-08T22:01:02.012Z,10.63
2017-09-08T22:03:29.519Z,8.90
2017-09-08T22:05:57.001Z,9.47
2017-09-08T22:08:24.489Z,9.90
2017-09-08T22:10:51.983Z,9.93
2017-09-08T22:13:19.454Z,8.57
2017-09-08T22:15:46.967Z,10.10
2017-09-08T22:18:14.470Z,9.90
2017-09-08T22:20:41.940Z,9.27
2017-09-08T22:23:09.439Z,9.50
2017-09-08T22:25:36.934Z,10.00
2017-09-08T22:28:04.396Z,9.67
2017-09-08T22:30:31.888Z,9.07
2017-09-08T22:33:00.118Z,9.37
2017-09-08T22:35:27.619Z,10.40
2017-09-08T22:37:55.095Z,9.63
2017-09-08T22:40:23.334Z,9.07
2017-09-08T22:42:50.839Z,8.57
2017-09-08T22:45:18.308Z,9.40
2017-09-08T22:47:45.791Z,9.10
2017-09-08T22:50:13.295Z,9.93
2017-09-08T22:52:41.561Z,9.53
2017-09-08T22:55:09.090Z,9.93
2017-09-08T22:57:36.574Z,9.63
2017-09-08T23:00:04.092Z,10.33
2017-09-08T23:02:31.589Z,9.70
2017-09-08T23:04:59.080Z,9.27
2017-09-08T23:07:26.580Z,9.50
2017-09-08T23:09:54.093Z,9.40
2017-09-08T23:12:22.381Z,10.47
2017-09-08T23:14:49.850Z,9.40
2017-09-08T23:17:17.346Z,10.20
2017-09-08T23:19:44.820Z,9.90
2017-09-08T23:22:12.327Z,8.83
2017-09-08T23:24:39.820Z,9.13
2017-09-08T23:27:07.319Z,9.30
2017-09-08T23:29:35.559Z,9.17
2017-09-08T23:32:03.036Z,10.03
2017-09-08T23:34:30.553Z,10.30
2017-09-08T23:36:58.038Z,8.47
2017-09-08T23:39:25.506Z,10.57
2017-09-08T23:41:52.996Z,9.43
2017-09-08T23:44:21.264Z,9.00
2017-09-08T23:46:49.535Z,10.07
2017-09-08T23:49:17.801Z,9.00
2017-09-08T23:51:45.280Z,10.37
2017-09-08T23:54:13.559Z,9.10
2017-09-08T23:56:41.787Z,9.00
2017-09-08T23:59:09.299Z,9.00
